Terminal Aerodrome Forecast
Issued by NWS

Home | Current Version | Previous Version | Graphics & Text | Print | Product List | Glossary On
Versions: 1 2 3 4 5 6 7 8 9 10 11 12 13
000
FTUS43 KTOP 051733
TAFMHK
TAF
KMHK 051733Z 0518/0618 19014G24KT P6SM FEW150
     FM052300 VRB04KT P6SM BKN050
     FM060500 35010KT P6SM SCT050 SCT250=

USA.gov is the U.S. government's official web portal to all federal, state and local government web resources and services.